Flight Track Log - Related Links

Times and Time Zones

All times are in EDT time to prevent confusion due to time zone crossing. See the SWA983 flight status page for this flight to view local times or setup timezone preferences in your user account.

Time Position Orientation Groundspeed Altitude Reporting Facility
EDT Latitude Longitude Course Direction KTS MPH feet Rate Location/Type
Sun 03:22:37 PM 39.1189 -76.6992 179° South 184 212 5,100  Level Washington Center
Sun 03:23:37 PM 39.0925 -76.6053 110° East 183 211 7,600 2,900 Climbing Washington Center
Sun 03:24:37 PM 39.0622 -76.4897 109° East 251 289 10,900 3,300 Climbing Washington Center
Sun 03:25:37 PM 39.0297 -76.3639 108° East 281 323 14,200 3,250 Climbing Washington Center
Sun 03:26:37 PM 39.0367 -76.2222 86° East 325 374 17,400 3,200 Climbing Washington Center
Sun 03:27:37 PM 39.0458 -76.0539 86° East 363 418 20,600 1,800 Climbing Washington Center
Sun 03:28:37 PM 39.0525 -75.9044 87° East 394 453 21,000 200 Climbing Washington Center
Sun 03:29:37 PM 39.0592 -75.7600 87° East 409 471 21,000  Level Washington Center
Sun 03:30:37 PM 39.0656 -75.6103 87° East 409 471 21,000  Level Washington Center
Sun 03:31:37 PM 39.0717 -75.4686 87° East 404 465 21,000  Level Washington Center
Sun 03:32:37 PM 39.0775 -75.3217 87° East 404 465 21,000  Level Washington Center
Sun 03:33:37 PM 39.1022 -75.1850 77° East 404 465 21,000  Level Washington Center
Sun 03:34:37 PM 39.1558 -75.0589 61° Northeast 383 441 21,000  Level Washington Center
Sun 03:35:37 PM 39.2053 -74.9381 62° Northeast 383 441 21,000  Level Washington Center
Sun 03:36:37 PM 39.2567 -74.8089 63° Northeast 388 447 21,000  Level Washington Center
Sun 03:37:37 PM 39.3078 -74.6797 63° Northeast 388 447 21,000  Level Washington Center
Sun 03:38:37 PM 39.3589 -74.5528 62° Northeast 388 447 21,000  Level Washington Center
Sun 03:39:37 PM 39.4097 -74.4258 63° Northeast 388 447 21,000  Level Washington Center
Sun 03:40:35 PM 39.4581 -74.3067 62° Northeast 387 445 21,000  Level New York Center
Sun 03:41:35 PM 39.5100 -74.1775 62° Northeast 403 464 21,000  Level New York Center
Sun 03:42:36 PM 39.5736 -74.0619 54° Northeast 398 458 21,000 -504 Level New York Center
Sun 03:43:34 PM 39.6433 -73.9547 50° Northeast 392 451 20,000 -1,017 Descending New York Center
Sun 03:44:34 PM 39.7108 -73.8472 51° Northeast 386 444 19,000 -992 Descending New York Center
Sun 03:45:35 PM 39.7761 -73.7447 50° Northeast 381 438 18,000 -934 Descending New York Center
Sun 03:46:36 PM 39.8433 -73.6367 51° Northeast 381 438 17,100 -958 Descending New York Center
Sun 03:47:34 PM 39.9083 -73.5339 50° Northeast 376 433 16,100 -1,008 Descending New York Center
Sun 03:48:35 PM 39.9811 -73.4500 41° Northeast 366 421 15,100 -1,091 Descending New York Center
Sun 03:49:35 PM 40.0433 -73.3739 43° Northeast 340 391 13,900 -1,449 Descending New York Center
Sun 03:52:02 PM 40.2142 -73.1711 42° Northeast 334 384 10,100 -1,205 Descending Boston Center
Sun 03:53:39 PM 40.3167 -73.0500 42° Northeast 287 330 9,000 -573 Descending New York TRACON
Sun 03:54:39 PM 40.3667 -72.9833 45° Northeast 294 338 8,600 -706 Descending New York TRACON
Sun 03:55:38 PM 40.4333 -72.9333 30° Northeast 256 295 7,600 -1,059 Descending New York TRACON
Sun 03:56:38 PM 40.5000 -72.9333 360° North 232 267 6,500 -1,488 Descending New York TRACON
Sun 03:57:39 PM 40.5667 -72.9333 360° North 256 295 4,600 -1,587 Descending New York TRACON
Sun 03:58:39 PM 40.6333 -72.9333 360° North 249 287 3,300 -850 Descending New York TRACON
Sun 03:59:39 PM 40.7000 -72.9333 360° North 235 270 2,900 -250 Descending New York TRACON
Sun 04:00:39 PM 40.7500 -72.9500 346° North 180 207 2,800 -450 Descending New York TRACON
Sun 04:01:39 PM 40.8000 -72.9833 333° Northwest 150 173 2,000 -600 Descending New York TRACON
Sun 04:02:39 PM 40.8167 -73.0333 294° West 146 168 1,600 -650 Descending New York TRACON
Sun 04:03:39 PM 40.8167 -73.0667 270° West 136 157 700 -900 Descending New York TRACON

Login

Don't have an account? Register now (free) for customized features, flight alerts, and more!